Tiempo atmosférico en la estación meteorológica de Villanueva De Los Infantes, Ciudad Real (870 m.)



Fecha
DESCASC
Temp. máxima en grados centígrados (hora)
DESCASC
Temp. mínima en grados centígrados (hora)
DESCASC
Temp. media en grados centígrados
DESCASC
Racha de viento máxima en m/sg (hora)
DESCASC
Velocidad máxima media en intervalos de 10 minutos(hora)
DESCASC
Precipitaciones diarias en mm
DESCASC
Precipitaciones de 00:00 a 06:00 en mm
DESCASC
Precipitaciones de 06:00 a 12:00 en mm
DESCASC
Precipitaciones de 12:00 a 18:00 en mm
DESCASC
Precipitaciones de 18:00 a 24:00 en mm
DESCASC
23-06-2019 36 (18:10) 16.5 (06:20) 26.3 7.5 (22:40) 3.89 (06:40) 0 0 0 0 0
22-06-2019 32.7 (17:10) 14.1 (06:50) 23.4 9.44 (14:30) 5.28 (14:30) 0 0 0 0 0
21-06-2019 29.8 (17:20) 13.6 (07:00) 21.7 10.28 (16:30) 4.72 (20:00) 0 0 0 0 0
20-06-2019 30.4 (17:20) 13.4 (00:00) 21.9 10.83 (20:30) 7.22 (20:30) 0 0 0 0 0
19-06-2019 30.1 (17:50) 12.2 (00:00) 21.2 11.94 (17:20) 7.22 (17:20) 0 0 0 0 0
18-06-2019 30 (16:20) 15.1 (00:00) 22.6 13.33 (18:10) 8.61 (15:00) 0 0 0 0 0
17-06-2019 31.8 (16:10) 11.8 (00:00) 21.8 10 (17:30) 6.39 (18:30) 0 0 0 0 0
16-06-2019 28.4 (18:00) 13.5 (00:00) 20.9 10 (12:50) 5.83 (12:50) 0 0 0 0 0
15-06-2019 26.6 (19:10) 9.4 (00:00) 18 10.83 (14:00) 4.44 (16:40) 0 0 0 0 0
14-06-2019 24.6 (16:30) 15.3 (00:00) 20 15.83 (16:20) 8.89 (16:20) 0 0 0 0 0
13-06-2019 28 (18:00) 12 (00:00) 20 8.89 (15:10) 5.56 (23:00) 0 0 0 0 0
12-06-2019 26.5 (17:30) 8.9 (00:00) 17.7 9.17 (17:40) 6.11 (04:00) 0 0 0 0 0
11-06-2019 24.2 (14:50) 10.2 (00:00) 17.2 11.67 (18:50) 7.5 (17:50) 0 0 0 0 0
10-06-2019 26.3 (17:00) 11.3 (00:00) 18.8 10.56 (20:00) 5 (18:40) 0 0 0 0 0
09-06-2019 26.9 (17:10) 14.4 (00:00) 20.6 11.11 (17:50) 6.67 (17:50) 0 0 0 0 0
08-06-2019 29.8 (14:50) 11.9 (00:00) 20.8 10.83 (16:10) 7.22 (05:10) 0 0 0 0 0
07-06-2019 24.3 (18:30) 10.3 (00:00) 17.3 11.11 (13:20) 6.39 (13:00) 0 0 0 0 0
06-06-2019 25.7 (16:30) 9.2 (00:00) 17.5 14.72 (16:50) 10.56 (17:10) 0 0 0 0 0
05-06-2019 21.1 (16:10) 10.8 (00:00) 16 13.61 (14:10) 6.94 (11:50) 0 0 0 0 0
04-06-2019 29.5 (15:50) 13.6 (00:00) 21.6 13.89 (16:30) 9.17 (16:30) 0 0 0 0 0
03-06-2019 33.2 (16:50) 15.6 (00:00) 24.4 10.28 (16:10) 6.11 (16:10) 0 0 0 0 0
02-06-2019 32.8 (18:40) 13.5 (00:00) 23.1 8.61 (18:50) 3.89 (22:30) 0 0 0 0 0
01-06-2019 30 (17:10) 12.9 (00:00) 21.4 12.5 (15:10) 6.67 (15:30) 0 0 0 0 0
31-05-2019 29.8 (16:00) 12.9 (00:00) 21.3 9.44 (16:10) 5.28 (20:20) 0 0 0 0 0
30-05-2019 28.6 (16:00) 11.8 (00:00) 20.2 9.17 (04:00) 6.94 (04:00) 0 0 0 0 0
29-05-2019 25.1 (18:00) 8.9 (00:00) 17 12.5 (15:40) 6.39 (02:10) 0 0 0 0 0
28-05-2019 27 (16:20) 12.5 (00:00) 19.8 11.67 (06:00) 8.61 (06:10) 0 0 0 0 0

Gráficas

Temp. máximas Temp. mínimas Temp. medias Precipitaciones Rachas de viento máximas Velocidades máximas media en intervalos de 10 minutos

Datos horarios

Fecha y hora oficial Temperatura (ºC) Velocidad del viento (km/h) Dirección del viento Racha (km/h) Dirección de racha Precipitación (mm) Presión (hPa) Tendencia (hPa) Humedad (%)
2019-06-26 23:00:00 -- -- -- -- -- -- -- -- --
2019-06-26 22:00:00 30.4 6 Sudoeste 19 Sudoeste 0 -- -- 33
2019-06-26 21:00:00 33.6 16 Sudoeste 23 Oeste 0 -- -- 28
2019-06-26 20:00:00 35.9 15 Sudoeste 31 Sudoeste 0 -- -- 26
2019-06-26 19:00:00 37.4 14 Sudoeste 33 Sudoeste 0 -- -- 23
2019-06-26 18:00:00 38 10 Sudoeste 24 Sur 0 -- -- 21
2019-06-26 17:00:00 36.8 6 Sudeste 33 Sudeste 0 -- -- 24
2019-06-26 16:00:00 35.8 5 Nordeste 21 Sur 0 -- -- 25
2019-06-26 15:00:00 34.4 9 Sudoeste 19 Oeste 0 -- -- 27
2019-06-26 14:00:00 32.5 7 Sudoeste 15 Oeste 0 -- -- 30
2019-06-26 13:00:00 30.7 4 Sudoeste 14 Nordeste 0 -- -- 33
2019-06-26 12:00:00 28.5 6 Nordeste 16 Nordeste 0 -- -- 37
2019-06-26 11:00:00 26.6 8 Nordeste 18 Nordeste 0 -- -- 40
2019-06-26 10:00:00 24.6 4 Sudeste 15 Sur 0 -- -- 44
2019-06-26 09:00:00 21.9 6 Sur 13 Sur 0 -- -- 50
2019-06-26 08:00:00 19.3 6 Sur 11 Sur 0 -- -- 56
2019-06-26 07:00:00 17.4 9 Sur 13 Sur 0 -- -- 59
2019-06-26 06:00:00 17.8 9 Sur 13 Sur 0 -- -- 59
2019-06-26 05:00:00 19 9 Sur 14 Sur 0 -- -- 56
2019-06-26 04:00:00 20.2 10 Sur 13 Sur 0 -- -- 52
2019-06-26 03:00:00 21.2 7 Sudeste 13 Sur 0 -- -- 50
2019-06-26 02:00:00 22.2 6 Sudeste 13 Sudeste 0 -- -- 47
2019-06-26 01:00:00 23.1 6 Sur 13 Sur 0 -- -- 43
2019-06-26 00:00:00 25.6 9 Sur 12 Sur 0 -- -- 38
2019-06-25 23:00:00 27.6 7 Sudoeste 24 Sudoeste 0 -- -- 36
2019-06-25 22:00:00 29.9 17 Sudoeste 25 Sudoeste 0 -- -- 32
2019-06-25 21:00:00 33.4 14 Oeste 23 Oeste 0 -- -- 28
2019-06-25 20:00:00 35.5 10 Oeste 21 Oeste 0 -- -- 26
2019-06-25 19:00:00 36.4 12 Sudoeste 26 Sudoeste 0 -- -- 25
2019-06-25 18:00:00 36.7 7 Sudoeste 21 Sudoeste 0 -- -- 25
2019-06-25 17:00:00 36.6 7 Sudoeste 27 Sur 0 -- -- 25
2019-06-25 16:00:00 35.5 13 Sur 25 Sudoeste 0 -- -- 26
2019-06-25 15:00:00 33.5 16 Sudoeste 27 Sudoeste 0 -- -- 27
2019-06-25 14:00:00 32.2 11 Sur 25 Sudoeste 0 -- -- 28
2019-06-25 13:00:00 30.9 9 Sudoeste 21 Sudoeste 0 -- -- 32
2019-06-25 12:00:00 28.7 9 Sudoeste 18 Sudoeste 0 -- -- 37
2019-06-25 11:00:00 26 8 Sudoeste 18 Sudoeste 0 -- -- 42
2019-06-25 10:00:00 23.4 11 Sudoeste 19 Sudoeste 0 -- -- 51
2019-06-25 09:00:00 21.6 9 Sur 18 Sur 0 -- -- 55
2019-06-25 08:00:00 18.6 8 Sur 13 Sur 0 -- -- 59
2019-06-25 07:00:00 16.3 5 Sur 12 Sudeste 0 -- -- 64
2019-06-25 06:00:00 16.5 6 Sur 10 Sudeste 0 -- -- 59
2019-06-25 05:00:00 16.9 6 Sur 12 Sur 0 -- -- 52
2019-06-25 04:00:00 18 9 Sur 13 Sur 0 -- -- 48
2019-06-25 03:00:00 18.3 6 Sur 11 Sur 0 -- -- 45
2019-06-25 02:00:00 19.7 6 Sur 12 Sur 0 -- -- 44
2019-06-25 01:00:00 21.5 7 Sur 11 Sur 0 -- -- 40
2019-06-25 00:00:00 22.8 7 Sur 13 Sur 0 -- -- 40
2019-06-24 23:00:00 24.5 5 Sudoeste 26 Sudoeste 0 -- -- 39
2019-06-24 22:00:00 26.4 18 Sudoeste 27 Sudoeste 0 -- -- 37
2019-06-24 21:00:00 28.9 19 Sudoeste 27 Sudoeste 0 -- -- 33
2019-06-24 20:00:00 31.5 16 Oeste 32 Sudoeste 0 -- -- 29
2019-06-24 19:00:00 32.9 10 Oeste 27 Oeste 0 -- -- 28
2019-06-24 18:00:00 32.7 14 Sudoeste 30 Sudoeste 0 -- -- 28
2019-06-24 17:00:00 32.2 8 Oeste 23 Sudoeste 0 -- -- 29
2019-06-24 16:00:00 30.5 10 Sudoeste 24 Sudoeste 0 -- -- 32
2019-06-24 15:00:00 30.4 12 Sudoeste 24 Sudoeste 0 -- -- 33
2019-06-24 14:00:00 30.2 9 Sudoeste 22 Sudoeste 0 -- -- 35
2019-06-24 13:00:00 28.2 8 Oeste 22 Sudoeste 0 -- -- 38
2019-06-24 12:00:00 28.1 8 Sudoeste 24 Sudoeste 0 -- -- 39
2019-06-24 11:00:00 25.5 9 Sudoeste 17 Sudoeste 0 -- -- 44
2019-06-24 10:00:00 22.6 10 Sudoeste 20 Sur 0 -- -- 56
2019-06-24 09:00:00 20.2 9 Sur 22 Sur 0 -- -- 64
2019-06-24 08:00:00 18.5 13 Sur 20 Sur 0 -- -- 67
2019-06-24 07:00:00 18.1 10 Sur 20 Sur 0 -- -- 67
2019-06-24 06:00:00 18.2 9 Sur 15 Sur 0 -- -- 61
2019-06-24 05:00:00 18.8 7 Sur 16 Sudeste 0 -- -- 57
2019-06-24 04:00:00 19.1 8 Sur 17 Sur 0 -- -- 51
2019-06-24 03:00:00 19.9 6 Sur 17 Sur 0 -- -- 46
2019-06-24 02:00:00 20.5 9 Sur 17 Sur 0 -- -- 44
2019-06-24 01:00:00 21.7 6 Sur 12 Sur 0 -- -- 42
2019-06-24 00:00:00 23.4 6 Sur 17 Sur 0 -- -- 38
2019-06-23 23:00:00 26.9 10 Sudoeste 27 Oeste 0 -- -- 27
2019-06-23 22:00:00 29.1 9 Sudoeste 16 Sudoeste 0 -- -- 28
2019-06-23 21:00:00 31.4 6 Noroeste 19 Norte 0 -- -- 24
2019-06-23 20:00:00 33.6 9 Norte 19 Noroeste 0 -- -- 22
2019-06-23 19:00:00 35.1 8 Norte 22 Oeste 0 -- -- 22
2019-06-23 18:00:00 35.7 13 Sudoeste 26 Sudoeste 0 -- -- 21
2019-06-23 17:00:00 35.2 13 Sudoeste 23 Oeste 0 -- -- 21
2019-06-23 16:00:00 34.1 11 Oeste 24 Oeste 0 -- -- 22
2019-06-23 15:00:00 32.7 8 Noroeste 23 Sudoeste 0 -- -- 24
2019-06-23 14:00:00 31.4 5 Norte 19 Sudoeste 0 -- -- 25
2019-06-23 13:00:00 30.1 6 Sur 18 Sudoeste 0 -- -- 27
2019-06-23 12:00:00 28.2 6 Sudoeste 15 Sur 0 -- -- 30
2019-06-23 11:00:00 25.6 7 Sudoeste 17 Sudoeste 0 -- -- 37
2019-06-23 10:00:00 23.2 9 Sudoeste 18 Sudoeste 0 -- -- 42
2019-06-23 09:00:00 21.1 8 Sur 16 Sur 0 -- -- 48
2019-06-23 08:00:00 18.8 6 Sur 19 Sudoeste 0 -- -- 56
2019-06-23 07:00:00 16.9 13 Sur 24 Sur 0 -- -- 60
2019-06-23 06:00:00 16.8 6 Sur 15 Sur 0 -- -- 56
2019-06-23 05:00:00 17.4 8 Sur 17 Sur 0 -- -- 52
2019-06-23 04:00:00 18.1 8 Sur 14 Sur 0 -- -- 47
2019-06-23 03:00:00 19 6 Sur 12 Sur 0 -- -- 45
2019-06-23 02:00:00 20 5 Sur 10 Sur 0 -- -- 41
2019-06-23 01:00:00 21.7 5 Sur 10 Sur 0 -- -- 36
2019-06-23 00:00:00 22.8 6 Sur 12 Sur 0 -- -- 33
2019-06-22 23:00:00 25.2 7 Oeste 17 Oeste 0 -- -- 29
2019-06-22 22:00:00 27 12 Oeste 17 Oeste 0 -- -- 29
2019-06-22 21:00:00 30.2 9 Oeste 24 Sudoeste 0 -- -- 24
2019-06-22 20:00:00 31.3 12 Sudoeste 32 Sudoeste 0 -- -- 23
2019-06-22 19:00:00 32.2 15 Oeste 31 Sudoeste 0 -- -- 19
2019-06-22 18:00:00 32.2 11 Sudoeste 33 Sudoeste 0 -- -- 19
2019-06-22 17:00:00 32.3 15 Sudoeste 33 Sudoeste 0 -- -- 19
2019-06-22 16:00:00 30.7 15 Sudoeste 31 Oeste 0 -- -- 22
2019-06-22 15:00:00 31.2 15 Sudoeste 34 Sur 0 -- -- 25
2019-06-22 14:00:00 29.6 14 Oeste 29 Oeste 0 -- -- 27
2019-06-22 13:00:00 28.5 12 Sudoeste 29 Sudoeste 0 -- -- 30
2019-06-22 12:00:00 26.5 10 Sudoeste 26 Sudoeste 0 -- -- 33
2019-06-22 11:00:00 25.6 14 Sudoeste 24 Sudoeste 0 -- -- 31
2019-06-22 10:00:00 23.4 12 Sudoeste 21 Sudoeste 0 -- -- 33
2019-06-22 09:00:00 20.9 12 Sur 17 Sur 0 -- -- 39
2019-06-22 08:00:00 17.3 8 Sur 11 Sur 0 -- -- 42
2019-06-22 07:00:00 14.2 5 Sur 10 Sudeste 0 -- -- 45
2019-06-22 06:00:00 14.5 7 Sur 10 Sur 0 -- -- 42
2019-06-22 05:00:00 15.8 6 Sur 8 Sur 0 -- -- 38
2019-06-22 04:00:00 16.6 5 Sur 9 Sur 0 -- -- 35
2019-06-22 03:00:00 18.2 5 Sur 8 Sur 0 -- -- 31
2019-06-22 02:00:00 19.6 6 Sur 8 Sur 0 -- -- 29
2019-06-22 01:00:00 20.7 3 Oeste 5 Noroeste 0 -- -- 27
2019-06-22 00:00:00 21.5 2 Nordeste 8 Norte 0 -- -- 26
2019-06-21 23:00:00 21.9 4 Norte 11 Norte 0 -- -- 26
2019-06-21 22:00:00 23.1 7 Norte 22 Norte 0 -- -- 25
2019-06-21 21:00:00 26.4 12 Norte 25 Norte 0 -- -- 23
2019-06-21 20:00:00 27.7 17 Norte 26 Norte 0 -- -- 23
2019-06-21 19:00:00 29.6 10 Noroeste 25 Oeste 0 -- -- 25
2019-06-21 18:00:00 29.1 8 Nordeste 29 Oeste 0 -- -- 26
2019-06-21 17:00:00 29.6 6 Sudoeste 37 Noroeste 0 -- -- 27
2019-06-21 16:00:00 28.5 8 Noroeste 27 Oeste 0 -- -- 27
2019-06-21 15:00:00 27.7 9 Noroeste 25 Oeste 0 -- -- 31
2019-06-21 14:00:00 26.4 8 Noroeste 28 Oeste 0 -- -- 33
2019-06-21 13:00:00 25.2 13 Noroeste 27 Oeste 0 -- -- 37
2019-06-21 12:00:00 24.2 10 Sudoeste 23 Oeste 0 -- -- 41
2019-06-21 11:00:00 22.3 6 Sudoeste 18 Sudoeste 0 -- -- 46
2019-06-21 10:00:00 19.3 8 Sudoeste 16 Sudoeste 0 -- -- 54
2019-06-21 09:00:00 17 10 Sudoeste 17 Sudoeste 0 -- -- 63
2019-06-21 08:00:00 14.8 7 Sur 10 Sur 0 -- -- 71
2019-06-21 07:00:00 13.6 6 Sur 10 Sur 0 -- -- 72
2019-06-21 06:00:00 14.4 7 Sur 10 Sur 0 -- -- 64
2019-06-21 05:00:00 15.4 5 Sur 10 Sudoeste 0 -- -- 60
2019-06-21 04:00:00 15.7 6 Sur 11 Sur 0 -- -- 57
2019-06-21 03:00:00 16.4 6 Sur 12 Sur 0 -- -- 54
2019-06-21 02:00:00 17.2 5 Sudoeste 12 Sur 0 -- -- 53
2019-06-21 01:00:00 17.7 6 Sur 12 Sudoeste 0 -- -- 51
2019-06-21 00:00:00 19.9 10 Sudoeste 21 Sudoeste 0 -- -- 47
2019-06-20 23:00:00 21.3 15 Sudoeste 30 Sudoeste 0 -- -- 42
2019-06-20 22:00:00 23.1 18 Sudoeste 31 Sudoeste 0 -- -- 38
2019-06-20 21:00:00 25.9 23 Sudoeste 39 Sudoeste 0 -- -- 33
2019-06-20 20:00:00 28.5 18 Oeste 37 Sudoeste 0 -- -- 26
2019-06-20 19:00:00 30 14 Oeste 33 Sudoeste 0 -- -- 24
2019-06-20 18:00:00 30.1 12 Oeste 35 Sudoeste 0 -- -- 22
2019-06-20 17:00:00 30.3 18 Oeste 32 Oeste 0 -- -- 21
2019-06-20 16:00:00 29.4 13 Sudoeste 30 Sudoeste 0 -- -- 27
2019-06-20 15:00:00 28.2 12 Sudoeste 30 Sudoeste 0 -- -- 29
2019-06-20 14:00:00 27.7 8 Sudoeste 23 Oeste 0 -- -- 32
2019-06-20 13:00:00 25.9 8 Sudoeste 18 Sudoeste 0 -- -- 38
2019-06-20 12:00:00 24.3 7 Sudoeste 14 Sudoeste 0 -- -- 43
2019-06-20 11:00:00 21.8 4 Oeste 21 Oeste 0 -- -- 52
2019-06-20 10:00:00 19.4 10 Sudoeste 20 Sudoeste 0 -- -- 60
2019-06-20 09:00:00 17.1 10 Sur 17 Sur 0 -- -- 65
2019-06-20 08:00:00 15 9 Sur 13 Sur 0 -- -- 61
2019-06-20 07:00:00 13.4 7 Sur 10 Sur 0 -- -- 62
2019-06-20 06:00:00 14.3 7 Sur 12 Sur 0 -- -- 56
2019-06-20 05:00:00 16.2 4 Sur 5 Sur 0 -- -- 56
2019-06-20 04:00:00 16.8 4 Sur 5 Sur 0 -- -- 54
2019-06-20 03:00:00 17.2 2 Oeste 4 Oeste 0 -- -- 53
2019-06-20 02:00:00 18.1 3 Oeste 6 Noroeste 0 -- -- 51
2019-06-20 01:00:00 18.3 4 Norte 10 Noroeste 0 -- -- 50
2019-06-20 00:00:00 19.8 6 Noroeste 13 Noroeste 0 -- -- 47
2019-06-19 23:00:00 21.5 6 Noroeste 14 Noroeste 0 -- -- 42
2019-06-19 22:00:00 23 8 Noroeste 21 Norte 0 -- -- 39
2019-06-19 21:00:00 26.6 13 Oeste 33 Sudoeste 0 -- -- 31
2019-06-19 20:00:00 28.8 20 Sudoeste 40 Sudoeste 0 -- -- 27
2019-06-19 19:00:00 29.7 14 Oeste 39 Oeste 0 -- -- 23
2019-06-19 18:00:00 29.9 22 Oeste 43 Sudoeste 0 -- -- 23
2019-06-19 17:00:00 29.8 19 Sudoeste 42 Sudoeste 0 -- -- 25
2019-06-19 16:00:00 28.7 13 Oeste 34 Oeste 0 -- -- 29
2019-06-19 15:00:00 28 12 Oeste 30 Sudoeste 0 -- -- 32
2019-06-19 14:00:00 26.6 12 Oeste 27 Oeste 0 -- -- 38
2019-06-19 13:00:00 24.9 10 Oeste 24 Oeste 0 -- -- 41
2019-06-19 12:00:00 22.6 8 Noroeste 24 Sudoeste 0 -- -- 50
2019-06-19 11:00:00 20.5 5 Oeste 15 Oeste 0 -- -- 57
2019-06-19 10:00:00 19.1 7 Oeste 15 Noroeste 0 -- -- 63
2019-06-19 09:00:00 16.7 7 Sudoeste 19 Sur 0 -- -- 75
2019-06-19 08:00:00 15.2 10 Sur 19 Sur 0 -- -- 78
2019-06-19 07:00:00 12.2 5 Sur 13 Sur 0 -- -- 80
2019-06-19 06:00:00 13.7 5 Sur 11 Sur 0 -- -- 70
2019-06-19 05:00:00 14.6 5 Sudoeste 11 Sur 0 -- -- 68
2019-06-19 04:00:00 14.8 8 Sur 12 Sur 0 -- -- 55
2019-06-19 03:00:00 16.1 6 Sudoeste 13 Sur 0 -- -- 47
2019-06-19 02:00:00 17.3 6 Sudoeste 24 Sudoeste 0 -- -- 39
2019-06-19 01:00:00 17.6 10 Sudoeste 23 Sudoeste 0 -- -- 33
2019-06-19 00:00:00 19.1 15 Sudoeste 23 Sudoeste 0 -- -- 27
2019-06-18 23:00:00 20.7 15 Sudoeste 35 Oeste 0 -- -- 22
2019-06-18 22:00:00 23 23 Oeste 34 Oeste 0 -- -- 19
2019-06-18 21:00:00 26 21 Oeste 40 Sudoeste 0 -- -- 15
2019-06-18 20:00:00 27.6 23 Oeste 45 Sudoeste 0 -- -- 13
2019-06-18 19:00:00 28.7 29 Oeste 48 Sudoeste 0 -- -- 16
2019-06-18 18:00:00 29.5 27 Sudoeste 46 Sudoeste 0 -- -- 17
2019-06-18 17:00:00 29.9 24 Sudoeste 47 Sudoeste 0 -- -- 17
2019-06-18 16:00:00 29.8 26 Oeste 47 Sudoeste 0 -- -- 17
2019-06-18 15:00:00 29 31 Oeste 45 Sudoeste 0 -- -- 18
2019-06-18 14:00:00 28.6 25 Sudoeste 41 Sudoeste 0 -- -- 21
2019-06-18 13:00:00 27.8 21 Sudoeste 39 Sudoeste 0 -- -- 23
2019-06-18 12:00:00 26.5 17 Sudoeste 27 Sudoeste 0 -- -- 27
2019-06-18 11:00:00 24.6 12 Sudoeste 22 Sudoeste 0 -- -- 36
2019-06-18 10:00:00 21.7 11 Sudoeste 22 Sudoeste 0 -- -- 43
2019-06-18 09:00:00 19.7 6 Sur 14 Sudeste 0 -- -- 47
2019-06-18 08:00:00 17 10 Sur 17 Sudoeste 0 -- -- 53
2019-06-18 07:00:00 15.1 8 Sur 14 Sur 0 -- -- 52
2019-06-18 06:00:00 16.3 6 Sur 14 Sur 0 -- -- 49
2019-06-18 05:00:00 15.8 9 Sur 13 Sur 0 -- -- 46
2019-06-18 04:00:00 17.4 7 Sur 14 Sur 0 -- -- 42
2019-06-18 03:00:00 18.1 9 Sur 13 Sur 0 -- -- 39
2019-06-18 02:00:00 18.9 6 Sur 12 Sur 0 -- -- 36
2019-06-18 01:00:00 19.8 7 Sur 14 Oeste 0 -- -- 33
2019-06-18 00:00:00 21.8 6 Sudoeste 15 Sudoeste 0 -- -- 31
2019-06-17 23:00:00 23 9 Sudoeste 17 Sudoeste 0 -- -- 29
2019-06-17 22:00:00 25.3 12 Sudoeste 26 Sudoeste 0 -- -- 28
2019-06-17 21:00:00 28.4 18 Sudoeste 26 Oeste 0 -- -- 24
2019-06-17 20:00:00 30.1 17 Sudoeste 34 Oeste 0 -- -- 19
2019-06-17 19:00:00 30.9 17 Sudoeste 35 Sudoeste 0 -- -- 16
2019-06-17 18:00:00 31 12 Oeste 36 Sudoeste 0 -- -- 19
2019-06-17 17:00:00 31.7 13 Sur 35 Oeste 0 -- -- 17
2019-06-17 16:00:00 31.7 12 Sur 33 Sudoeste 0 -- -- 19
2019-06-17 15:00:00 29.8 12 Sudoeste 32 Sudoeste 0 -- -- 23
2019-06-17 14:00:00 28.7 11 Oeste 23 Oeste 0 -- -- 25
2019-06-17 13:00:00 27.4 9 Sudoeste 22 Sur 0 -- -- 29
2019-06-17 12:00:00 25.2 6 Sur 17 Sudoeste 0 -- -- 32
2019-06-17 11:00:00 22.6 4 Oeste 15 Sudoeste 0 -- -- 37
2019-06-17 10:00:00 20.2 8 Sur 19 Sudoeste 0 -- -- 41
2019-06-17 09:00:00 17.6 9 Sur 18 Sur 0 -- -- 52
2019-06-17 08:00:00 14.5 6 Sur 12 Sur 0 -- -- 59
2019-06-17 07:00:00 11.8 6 Sur 11 Sur 0 -- -- 64
2019-06-17 06:00:00 12.4 6 Sur 12 Sur 0 -- -- 58
2019-06-17 05:00:00 13.1 5 Sur 13 Sur 0 -- -- 52
2019-06-17 04:00:00 13.9 7 Sur 12 Sur 0 -- -- 44
2019-06-17 03:00:00 15 7 Sur 13 Sur 0 -- -- 39
2019-06-17 02:00:00 16 7 Sur 10 Sur 0 -- -- 36
2019-06-17 01:00:00 17.5 7 Sur 15 Sudoeste 0 -- -- 33
2019-06-17 00:00:00 20.5 12 Sudoeste 18 Oeste 0 -- -- 30
2019-06-16 23:00:00 21.5 12 Oeste 20 Oeste 0 -- -- 29
2019-06-16 22:00:00 22.9 13 Oeste 21 Oeste 0 -- -- 26
2019-06-16 21:00:00 24.9 15 Oeste 27 Noroeste 0 -- -- 23
2019-06-16 20:00:00 26.3 16 Oeste 29 Oeste 0 -- -- 23
2019-06-16 19:00:00 27 15 Oeste 27 Sudoeste 0 -- -- 19
2019-06-16 18:00:00 28.4 12 Sudoeste 28 Sudoeste 0 -- -- 18
2019-06-16 17:00:00 28.1 14 Sudoeste 31 Sudoeste 0 -- -- 17
2019-06-16 16:00:00 27.5 17 Sudoeste 30 Sudoeste 0 -- -- 19
2019-06-16 15:00:00 27.8 13 Sudoeste 28 Sudoeste 0 -- -- 20
2019-06-16 14:00:00 27.6 9 Oeste 32 Sudoeste 0 -- -- 22
2019-06-16 13:00:00 27.1 17 Sudoeste 36 Sudoeste 0 -- -- 24
2019-06-16 12:00:00 26.6 13 Sudoeste 24 Sur 0 -- -- 24
2019-06-16 11:00:00 24.9 12 Sur 27 Sur 0 -- -- 26
2019-06-16 10:00:00 23.1 13 Sur 27 Sur 0 -- -- 31
2019-06-16 09:00:00 20.7 6 Sur 16 Sudeste 0 -- -- 40
2019-06-16 08:00:00 16.8 6 Sudeste 14 Sudeste 0 -- -- 48
2019-06-16 07:00:00 13.5 9 Sudeste 20 Este 0 -- -- 53
2019-06-16 06:00:00 13.7 17 Este 22 Este 0 -- -- 49
2019-06-16 05:00:00 14.4 14 Este 20 Este 0 -- -- 39
2019-06-16 04:00:00 15.5 17 Este 23 Este 0 -- -- 36
2019-06-16 03:00:00 15.7 18 Este 21 Este 0 -- -- 35
2019-06-16 02:00:00 16.3 18 Este 21 Este 0 -- -- 36
2019-06-16 01:00:00 16.4 16 Este 21 Este 0 -- -- 34
2019-06-16 00:00:00 17.1 11 Este 13 Este 0 -- -- 34
2019-06-15 23:00:00 18.1 7 Nordeste 11 Norte 0 -- -- 33
2019-06-15 22:00:00 20.7 8 Norte 13 Norte 0 -- -- 28
2019-06-15 21:00:00 23.9 9 Norte 18 Noroeste 0 -- -- 25
2019-06-15 20:00:00 25.7 11 Noroeste 22 Noroeste 0 -- -- 23
2019-06-15 19:00:00 26.3 9 Noroeste 23 Noroeste 0 -- -- 24
2019-06-15 18:00:00 26.2 13 Noroeste 27 Oeste 0 -- -- 24
2019-06-15 17:00:00 25.5 9 Noroeste 36 Sudoeste 0 -- -- 24
2019-06-15 16:00:00 24.7 8 Oeste 25 Oeste 0 -- -- 27
2019-06-15 15:00:00 22.9 7 Oeste 26 Oeste 0 -- -- 30
2019-06-15 14:00:00 21.8 8 Oeste 39 Sudeste 0 -- -- 33
2019-06-15 13:00:00 20.5 9 Oeste 19 Sudoeste 0 -- -- 36
2019-06-15 12:00:00 19 8 Oeste 17 Oeste 0 -- -- 39
2019-06-15 11:00:00 17.2 6 Noroeste 14 Noroeste 0 -- -- 43
2019-06-15 10:00:00 15.2 5 Noroeste 15 Oeste 0 -- -- 48
2019-06-15 09:00:00 13.3 6 Oeste 12 Oeste 0 -- -- 54
2019-06-15 08:00:00 11.3 6 Oeste 10 Oeste 0 -- -- 56
2019-06-15 07:00:00 9.4 4 Sudoeste 8 Sudoeste 0 -- -- 60
2019-06-15 06:00:00 9.9 5 Sudoeste 8 Sudoeste 0 -- -- 58
2019-06-15 05:00:00 10.9 5 Sudoeste 12 Oeste 0 -- -- 55
2019-06-15 04:00:00 11.8 6 Oeste 12 Oeste 0 -- -- 53
2019-06-15 03:00:00 12.3 8 Oeste 13 Oeste 0 -- -- 52
2019-06-15 02:00:00 13.1 6 Oeste 16 Noroeste 0 -- -- 49
2019-06-15 01:00:00 14.1 7 Noroeste 18 Oeste 0 -- -- 45
2019-06-15 00:00:00 15.3 5 Noroeste 19 Oeste 0 -- -- 43
2019-06-14 23:00:00 16.2 10 Sudoeste 29 Sudoeste 0 -- -- 40
2019-06-14 22:00:00 17.5 23 Sudoeste 39 Sudoeste 0 -- -- 38
2019-06-14 21:00:00 20.2 21 Sudoeste 41 Sudoeste 0 -- -- 32
2019-06-14 20:00:00 22.4 27 Sudoeste 42 Sudoeste 0 -- -- 29
2019-06-14 19:00:00 23.8 23 Sudoeste 44 Sudoeste 0 -- -- 26
2019-06-14 18:00:00 24.2 22 Sudoeste 45 Sudoeste 0 -- -- 27
2019-06-14 17:00:00 24.2 23 Oeste 57 Sudoeste 0 -- -- 27
2019-06-14 16:00:00 24.3 30 Sudoeste 47 Oeste 0 -- -- 26
2019-06-14 15:00:00 23.6 28 Sudoeste 45 Sudoeste 0 -- -- 29
2019-06-14 14:00:00 22.6 31 Oeste 49 Sudoeste 0 -- -- 32
2019-06-14 13:00:00 21.6 30 Sudoeste 42 Sudoeste 0 -- -- 39
2019-06-14 12:00:00 21 23 Sudoeste 43 Sudoeste 0 -- -- 47
2019-06-14 11:00:00 19.6 26 Oeste 39 Sudoeste 0 -- -- 49
2019-06-14 10:00:00 18.2 18 Sudoeste 27 Sudoeste 0 -- -- 40
2019-06-14 09:00:00 16.3 17 Sudoeste 24 Sudoeste 0 -- -- 50
2019-06-14 08:00:00 15.5 11 Sudoeste 19 Sudoeste 0 -- -- 54
2019-06-14 07:00:00 15.7 13 Sudoeste 27 Sudoeste 0 -- -- 56
2019-06-14 06:00:00 16.1 17 Sudoeste 28 Sudoeste 0 -- -- 55
2019-06-14 05:00:00 17 18 Sudoeste 26 Sudoeste 0 -- -- 44
2019-06-14 04:00:00 18.7 17 Oeste 24 Oeste 0 -- -- 38
2019-06-14 03:00:00 19.5 16 Oeste 27 Oeste 0 -- -- 39
2019-06-14 02:00:00 20.3 14 Oeste 24 Oeste 0 -- -- 48
2019-06-14 01:00:00 20.8 13 Oeste 22 Oeste 0 -- -- 46
2019-06-14 00:00:00 21.7 12 Oeste 29 Sudoeste 0 -- -- 43
2019-06-13 23:00:00 22.5 20 Oeste 29 Oeste 0 -- -- 42
2019-06-13 22:00:00 23.6 16 Sudoeste 24 Oeste 0 -- -- 42
2019-06-13 21:00:00 25 15 Oeste 22 Sudoeste 0 -- -- 36
2019-06-13 20:00:00 27 15 Oeste 25 Oeste 0 -- -- 32
2019-06-13 19:00:00 27.4 9 Oeste 28 Oeste 0 -- -- 32
2019-06-13 18:00:00 28 10 Sudoeste 32 Sudoeste 0 -- -- 32
2019-06-13 17:00:00 27.2 15 Sudoeste 28 Sudoeste 0 -- -- 34
2019-06-13 16:00:00 25.9 5 Noroeste 32 Oeste 0 -- -- 38
2019-06-13 15:00:00 25.5 11 Sudoeste 24 Sudoeste 0 -- -- 38
2019-06-13 14:00:00 23.9 8 Sudoeste 21 Sudoeste 0 -- -- 43
2019-06-13 13:00:00 22.5 8 Sudoeste 21 Sudoeste 0 -- -- 47
2019-06-13 12:00:00 21.4 11 Sudoeste 21 Sudoeste 0 -- -- 50
2019-06-13 11:00:00 19.8 9 Sudoeste 24 Sudoeste 0 -- -- 57
2019-06-13 10:00:00 17.3 10 Sudoeste 24 Sur 0 -- -- 65
2019-06-13 09:00:00 15.8 14 Sudoeste 25 Sudoeste 0 -- -- 70
2019-06-13 08:00:00 14.4 14 Sur 21 Sur 0 -- -- 75
2019-06-13 07:00:00 12 9 Sur 16 Sur 0 -- -- 78
2019-06-13 06:00:00 12.5 6 Sur 15 Sur 0 -- -- 74
2019-06-13 05:00:00 12.7 5 Sur 10 Sur 0 -- -- 68
2019-06-13 04:00:00 14.4 6 Sur 14 Sur 0 -- -- 62
2019-06-13 03:00:00 14 0 Calma 14 Sudeste 0 -- -- 63
2019-06-13 02:00:00 14.4 8 Sur 11 Sudeste 0 -- -- 58
2019-06-13 01:00:00 15.9 5 Sur 14 Sur 0 -- -- 53
2019-06-13 00:00:00 16.6 9 Sur 15 Sudeste 0 -- -- 47
2019-06-12 23:00:00 19.5 13 Sudoeste 21 Sudoeste 0 -- -- 30
2019-06-12 22:00:00 20.6 10 Sudoeste 19 Sudoeste 0 -- -- 27
2019-06-12 21:00:00 23.7 9 Sudoeste 24 Sudoeste 0 -- -- 25
2019-06-12 20:00:00 25 14 Sudoeste 29 Sudoeste 0 -- -- 25
2019-06-12 19:00:00 25.8 18 Sudoeste 31 Sudoeste 0 -- -- 25
2019-06-12 18:00:00 26.2 19 Sudoeste 33 Sudoeste 0 -- -- 26
2019-06-12 17:00:00 25.3 14 Oeste 32 Oeste 0 -- -- 29
2019-06-12 16:00:00 24.6 13 Sudoeste 26 Sudoeste 0 -- -- 33
2019-06-12 15:00:00 24.9 14 Sudoeste 26 Sudoeste 0 -- -- 31
2019-06-12 14:00:00 23.9 11 Oeste 31 Sudoeste 0 -- -- 30
2019-06-12 13:00:00 22.3 13 Sudoeste 25 Oeste 0 -- -- 32
2019-06-12 12:00:00 20.7 10 Sur 26 Sudoeste 0 -- -- 35
2019-06-12 11:00:00 19.2 6 Oeste 17 Sudoeste 0 -- -- 40
2019-06-12 10:00:00 17.7 8 Sudoeste 16 Sur 0 -- -- 52
2019-06-12 09:00:00 16 8 Sudeste 16 Sudeste 0 -- -- 55
2019-06-12 08:00:00 11.4 10 Sudeste 18 Este 0 -- -- 67
2019-06-12 07:00:00 8.9 14 Sudeste 24 Este 0 -- -- 73
2019-06-12 06:00:00 9.4 18 Este 28 Este 0 -- -- 71
2019-06-12 05:00:00 10.1 21 Este 30 Este 0 -- -- 66
2019-06-12 04:00:00 10.6 22 Este 29 Este 0 -- -- 69
2019-06-12 03:00:00 11.1 18 Este 27 Este 0 -- -- 73
2019-06-12 02:00:00 11.8 19 Este 26 Este 0 -- -- 73
2019-06-12 01:00:00 12.9 16 Este 25 Este 0 -- -- 54
2019-06-12 00:00:00 14.3 15 Nordeste 24 Este 0 -- -- 39
2019-06-11 23:00:00 14.5 12 Nordeste 18 Nordeste 0 -- -- 40
2019-06-11 22:00:00 15.9 11 Nordeste 31 Nordeste 0 -- -- 39
2019-06-11 21:00:00 17.9 20 Nordeste 33 Norte 0 -- -- 36
2019-06-11 20:00:00 19.4 23 Nordeste 38 Nordeste 0 -- -- 36
2019-06-11 19:00:00 20.4 25 Nordeste 42 Nordeste 0 -- -- 35
2019-06-11 18:00:00 21.5 23 Nordeste 39 Nordeste 0 -- -- 35
2019-06-11 17:00:00 23 19 Norte 37 Norte 0 -- -- 33
2019-06-11 16:00:00 23.9 13 Norte 35 Noroeste 0 -- -- 31
2019-06-11 15:00:00 23.2 14 Norte 32 Oeste 0 -- -- 33
2019-06-11 14:00:00 23.1 16 Noroeste 34 Oeste 0 -- -- 33
2019-06-11 13:00:00 22.3 15 Noroeste 28 Noroeste 0 -- -- 32
2019-06-11 12:00:00 20.8 18 Oeste 29 Oeste 0 -- -- 36
2019-06-11 11:00:00 18.8 13 Oeste 31 Sudoeste 0 -- -- 46
2019-06-11 10:00:00 16.2 15 Sudoeste 23 Sudoeste 0 -- -- 58
2019-06-11 09:00:00 14 9 Sudoeste 19 Sur 0 -- -- 69
2019-06-11 08:00:00 12.2 9 Sur 19 Sur 0 -- -- 75
2019-06-11 07:00:00 10.3 10 Sur 16 Sur 0 -- -- 76
2019-06-11 06:00:00 11.2 7 Sudoeste 17 Sur 0 -- -- 74
2019-06-11 05:00:00 11.5 10 Sur 17 Sur 0 -- -- 65
2019-06-11 04:00:00 12.4 9 Sur 14 Sur 0 -- -- 55
2019-06-11 03:00:00 14.3 6 Sudoeste 15 Sur 0 -- -- 42
2019-06-11 02:00:00 16.4 11 Oeste 18 Oeste 0 -- -- 37
2019-06-11 01:00:00 17.1 11 Oeste 18 Oeste 0 -- -- 37
2019-06-11 00:00:00 18 11 Oeste 17 Oeste 0 -- -- 34
2019-06-10 23:00:00 19.4 10 Oeste 21 Noroeste 0 -- -- 32
2019-06-10 22:00:00 21.1 11 Noroeste 23 Noroeste 0 -- -- 30
2019-06-10 21:00:00 23.7 13 Oeste 30 Noroeste 0 -- -- 26
2019-06-10 20:00:00 24.8 16 Noroeste 38 Norte 0 -- -- 24
2019-06-10 19:00:00 25.5 15 Noroeste 32 Noroeste 0 -- -- 22
2019-06-10 18:00:00 26.1 14 Oeste 35 Oeste 0 -- -- 22
2019-06-10 17:00:00 26.3 17 Oeste 31 Oeste 0 -- -- 22
2019-06-10 16:00:00 25.4 14 Noroeste 28 Oeste 0 -- -- 22
2019-06-10 15:00:00 24.5 12 Noroeste 30 Oeste 0 -- -- 25
2019-06-10 14:00:00 23.8 13 Noroeste 37 Sudoeste 0 -- -- 27
2019-06-10 13:00:00 22.5 8 Sudoeste 28 Oeste 0 -- -- 31
2019-06-10 12:00:00 21.2 8 Oeste 27 Oeste 0 -- -- 34
2019-06-10 11:00:00 19.5 8 Sudoeste 18 Oeste 0 -- -- 40
2019-06-10 10:00:00 17.3 6 Sur 15 Sudoeste 0 -- -- 46
2019-06-10 09:00:00 14.7 5 Sur 10 Sur 0 -- -- 51
2019-06-10 08:00:00 12.6 4 Sur 9 Sur 0 -- -- 53
2019-06-10 07:00:00 11.3 5 Sur 8 Sudoeste 0 -- -- 56
2019-06-10 06:00:00 12.3 4 Sudoeste 12 Oeste 0 -- -- 53
2019-06-10 05:00:00 12.6 6 Oeste 11 Oeste 0 -- -- 51
2019-06-10 04:00:00 14.1 7 Oeste 14 Oeste 0 -- -- 45
2019-06-10 03:00:00 15.1 5 Oeste 14 Oeste 0 -- -- 41
2019-06-10 02:00:00 15.8 6 Oeste 15 Oeste 0 -- -- 37
2019-06-10 01:00:00 16.6 8 Oeste 14 Oeste 0 -- -- 34
2019-06-10 00:00:00 17.7 9 Oeste 15 Noroeste 0 -- -- 32
2019-06-09 23:00:00 18.3 9 Noroeste 18 Oeste 0 -- -- 30
2019-06-09 22:00:00 20.8 10 Noroeste 26 Noroeste 0 -- -- 25
2019-06-09 21:00:00 23.2 15 Noroeste 31 Noroeste 0 -- -- 25
2019-06-09 20:00:00 24 14 Noroeste 38 Oeste 0 -- -- 28
2019-06-09 19:00:00 24.5 19 Oeste 39 Sudoeste 0 -- -- 33
2019-06-09 18:00:00 25.5 19 Oeste 40 Oeste 0 -- -- 31
2019-06-09 17:00:00 26.2 20 Sudoeste 35 Sudoeste 0 -- -- 32
2019-06-09 16:00:00 25.9 13 Oeste 32 Oeste 0 -- -- 30
2019-06-09 15:00:00 26 15 Oeste 37 Oeste 0 -- -- 28
2019-06-09 14:00:00 25.4 15 Oeste 37 Sudoeste 0 -- -- 28
2019-06-09 13:00:00 24.3 10 Sudoeste 30 Oeste 0 -- -- 32
2019-06-09 12:00:00 22.6 14 Oeste 27 Sudoeste 0 -- -- 36
2019-06-09 11:00:00 20 13 Sudoeste 33 Sur 0 -- -- 44
2019-06-09 10:00:00 18 13 Sudoeste 23 Sudoeste 0 -- -- 51
2019-06-09 09:00:00 15.4 10 Sudoeste 19 Sudoeste 0 -- -- 60
2019-06-09 08:00:00 14.4 8 Sur 15 Sur 0 -- -- 62
2019-06-09 07:00:00 14.7 8 Sur 16 Sur 0 -- -- 61
2019-06-09 06:00:00 15.9 9 Sudoeste 18 Sur 0 -- -- 59
2019-06-09 05:00:00 16.7 8 Sudoeste 26 Sudoeste 0 -- -- 56
2019-06-09 04:00:00 17.6 10 Sudoeste 20 Sudoeste 0 -- -- 52
2019-06-09 03:00:00 18.2 15 Sudoeste 25 Sudoeste 0 -- -- 48
2019-06-09 02:00:00 18.8 8 Sur 17 Sudoeste 0 -- -- 45
2019-06-09 01:00:00 19 7 Sur 20 Sudoeste 0 -- -- 44
2019-06-09 00:00:00 20.5 11 Sudoeste 18 Sudoeste 0 -- -- 40
2019-06-08 23:00:00 22.3 8 Sudoeste 24 Sudoeste 0 -- -- 36
2019-06-08 22:00:00 23.4 0 Calma 20 Oeste 0 -- -- 32
2019-06-08 21:00:00 25.7 10 Noroeste 20 Oeste 0 -- -- 28
2019-06-08 20:00:00 28 11 Oeste 24 Sudoeste 0 -- -- 25
2019-06-08 19:00:00 28.2 10 Oeste 24 Sudoeste 0 -- -- 25
2019-06-08 18:00:00 29.1 12 Oeste 36 Oeste 0 -- -- 23
2019-06-08 17:00:00 28.4 19 Sudoeste 39 Oeste 0 -- -- 23
2019-06-08 16:00:00 29.5 21 Sudoeste 35 Oeste 0 -- -- 22
2019-06-08 15:00:00 29.3 20 Sudoeste 35 Sudoeste 0 -- -- 24
2019-06-08 14:00:00 29 13 Sudoeste 32 Sudoeste 0 -- -- 25
2019-06-08 13:00:00 27.9 8 Sudeste 30 Sur 0 -- -- 28
2019-06-08 12:00:00 26.2 12 Sur 26 Sudoeste 0 -- -- 31
2019-06-08 11:00:00 24.3 11 Sur 26 Sur 0 -- -- 34
2019-06-08 10:00:00 22.3 8 Sudeste 22 Este 0 -- -- 38
2019-06-08 09:00:00 19.5 10 Sudeste 23 Sudeste 0 -- -- 41
2019-06-08 08:00:00 14.7 14 Este 26 Este 0 -- -- 45
2019-06-08 07:00:00 12.1 20 Este 31 Este 0 -- -- 40
2019-06-08 06:00:00 12.3 24 Este 35 Este 0 -- -- 36
2019-06-08 05:00:00 12.6 26 Este 34 Este 0 -- -- 35
2019-06-08 04:00:00 13.2 24 Este 32 Este 0 -- -- 34
2019-06-08 03:00:00 13.4 23 Este 32 Este 0 -- -- 34
2019-06-08 02:00:00 13.6 22 Este 28 Este 0 -- -- 33
2019-06-08 01:00:00 13.8 18 Este 23 Este 0 -- -- 31
2019-06-08 00:00:00 14.2 12 Este 14 Este 0 -- -- 32
2019-06-07 23:00:00 15 11 Este 13 Nordeste 0 -- -- 30
2019-06-07 22:00:00 17.3 8 Norte 16 Noroeste 0 -- -- 25
2019-06-07 21:00:00 20.9 8 Norte 20 Noroeste 0 -- -- 21
2019-06-07 20:00:00 23.6 9 Noroeste 23 Oeste 0 -- -- 21
2019-06-07 19:00:00 23.6 6 Norte 25 Oeste 0 -- -- 23
2019-06-07 18:00:00 23.9 9 Noroeste 22 Noroeste 0 -- -- 24
2019-06-07 17:00:00 23.6 13 Oeste 26 Oeste 0 -- -- 26
2019-06-07 16:00:00 22.4 14 Noroeste 31 Sudoeste 0 -- -- 29
2019-06-07 15:00:00 21.2 17 Oeste 38 Oeste 0 -- -- 31
2019-06-07 14:00:00 19.7 15 Noroeste 40 Oeste 0 -- -- 39
2019-06-07 13:00:00 17.9 23 Oeste 39 Oeste 0 -- -- 47
2019-06-07 12:00:00 16 14 Oeste 26 Oeste 0 -- -- 57
2019-06-07 11:00:00 12.5 12 Oeste 24 Oeste 0 -- -- 67
2019-06-07 10:00:00 11.2 15 Oeste 25 Oeste 0 -- -- 68
2019-06-07 09:00:00 10.6 11 Oeste 25 Sudoeste 0 -- -- 82
2019-06-07 08:00:00 11.2 18 Sudoeste 27 Sudoeste 0 -- -- 76
2019-06-07 07:00:00 10.7 11 Sudoeste 24 Sur 0 -- -- 73
2019-06-07 06:00:00 10.3 10 Sudoeste 22 Sudoeste 0 -- -- 70
2019-06-07 05:00:00 10.7 9 Sur 21 Sudoeste 0 -- -- 61
2019-06-07 04:00:00 11.4 9 Sudoeste 24 Sudoeste 0 -- -- 52
2019-06-07 03:00:00 12.1 10 Sudoeste 21 Sudoeste 0 -- -- 38
2019-06-07 02:00:00 13.6 15 Sudoeste 26 Sudoeste 0 -- -- 30
2019-06-07 01:00:00 14.8 16 Sudoeste 29 Sudoeste 0 -- -- 34
2019-06-07 00:00:00 16 20 Sudoeste 27 Sudoeste 0 -- -- 34
2019-06-06 23:00:00 17.3 15 Sudoeste 21 Sudoeste 0 -- -- 31
2019-06-06 22:00:00 19.2 11 Sudoeste 35 Sudoeste 0 -- -- 26
2019-06-06 21:00:00 22 24 Oeste 41 Sudoeste 0 -- -- 22
2019-06-06 20:00:00 23.7 27 Oeste 44 Sudoeste 0 -- -- 18
2019-06-06 19:00:00 24.7 28 Oeste 48 Sudoeste 0 -- -- 20
2019-06-06 18:00:00 25.4 30 Oeste 52 Sudoeste 0 -- -- 21
2019-06-06 17:00:00 25.4 32 Oeste 53 Sudoeste 0 -- -- 17
2019-06-06 16:00:00 24.8 31 Sudoeste 49 Sudoeste 0 -- -- 19
2019-06-06 15:00:00 24.1 26 Sudoeste 47 Sudoeste 0 -- -- 23
2019-06-06 14:00:00 23.2 24 Sudoeste 44 Sudoeste 0 -- -- 24
2019-06-06 13:00:00 22.1 22 Sudoeste 38 Sudoeste 0 -- -- 28
2019-06-06 12:00:00 20.5 13 Sudoeste 29 Sudoeste 0 -- -- 31
2019-06-06 11:00:00 18.2 11 Sudoeste 21 Sudoeste 0 -- -- 36
2019-06-06 10:00:00 15.8 3 Oeste 10 Sur 0 -- -- 40
2019-06-06 09:00:00 13.2 4 Sur 7 Sudoeste 0 -- -- 45
2019-06-06 08:00:00 11.2 3 Sur 6 Sur 0 -- -- 46
2019-06-06 07:00:00 9.2 4 Sur 6 Sur 0 -- -- 50
2019-06-06 06:00:00 10.1 2 Sudoeste 5 Oeste 0 -- -- 48
2019-06-06 05:00:00 10.3 3 Sur 6 Oeste 0 -- -- 47
2019-06-06 04:00:00 11 5 Sudoeste 8 Sudoeste 0 -- -- 45
2019-06-06 03:00:00 11.7 4 Sudoeste 12 Noroeste 0 -- -- 43
2019-06-06 02:00:00 12.6 6 Oeste 12 Oeste 0 -- -- 41
2019-06-06 01:00:00 13 8 Oeste 16 Oeste 0 -- -- 40
2019-06-06 00:00:00 13.7 9 Oeste 15 Oeste 0 -- -- 38
2019-06-05 23:00:00 14.6 9 Oeste 17 Oeste 0 -- -- 35
2019-06-05 22:00:00 15.8 10 Oeste 25 Oeste 0 -- -- 32
2019-06-05 21:00:00 18.4 11 Oeste 27 Noroeste 0 -- -- 29
2019-06-05 20:00:00 19.3 15 Oeste 28 Noroeste 0 -- -- 28
2019-06-05 19:00:00 18.8 19 Oeste 31 Oeste 0 -- -- 29
2019-06-05 18:00:00 19.3 15 Noroeste 35 Noroeste 0 -- -- 28
2019-06-05 17:00:00 20.8 19 Noroeste 43 Oeste 0 -- -- 26
2019-06-05 16:00:00 20.5 21 Noroeste 46 Sudoeste 0 -- -- 27
2019-06-05 15:00:00 19.5 21 Noroeste 49 Noroeste 0 -- -- 29
2019-06-05 14:00:00 18.5 24 Oeste 43 Oeste 0 -- -- 33
2019-06-05 13:00:00 17.6 20 Oeste 42 Oeste 0 -- -- 37
2019-06-05 12:00:00 16 25 Oeste 47 Noroeste 0 -- -- 38
2019-06-05 11:00:00 14.6 22 Oeste 42 Noroeste 0 -- -- 43
2019-06-05 10:00:00 12.9 21 Oeste 43 Oeste 0 -- -- 52
2019-06-05 09:00:00 11.4 20 Oeste 38 Oeste 0 -- -- 60
2019-06-05 08:00:00 10.9 21 Oeste 37 Oeste 0 -- -- 60
2019-06-05 07:00:00 12.6 18 Oeste 33 Oeste 0 -- -- 62
2019-06-05 06:00:00 13.6 19 Oeste 40 Oeste 0 -- -- 65
2019-06-05 05:00:00 14.5 15 Noroeste 30 Noroeste 0 -- -- 66
2019-06-05 04:00:00 16.2 16 Oeste 35 Oeste 0 -- -- 64
2019-06-05 03:00:00 17.6 15 Oeste 27 Oeste 0 -- -- 60
2019-06-05 02:00:00 17.7 13 Oeste 19 Noroeste 0 -- -- 57
2019-06-05 01:00:00 18.7 11 Oeste 22 Noroeste 0 -- -- 53
2019-06-05 00:00:00 20.5 12 Oeste 26 Oeste 0 -- -- 47
2019-06-04 23:00:00 21.5 17 Sudoeste 33 Sudoeste 0 -- -- 42
2019-06-04 22:00:00 22.7 22 Sudoeste 38 Sudoeste 0 -- -- 38
2019-06-04 21:00:00 25 22 Sudoeste 37 Sudoeste 0 -- -- 31
2019-06-04 20:00:00 26.9 26 Sudoeste 46 Sudoeste 0 -- -- 27
2019-06-04 19:00:00 28.4 26 Sudoeste 47 Sudoeste 0 -- -- 26
2019-06-04 18:00:00 29.2 26 Sudoeste 44 Sudoeste 0 -- -- 22
2019-06-04 17:00:00 29.5 26 Sudoeste 50 Sudoeste 0 -- -- 22
2019-06-04 16:00:00 29.5 26 Sudoeste 49 Sudoeste 0 -- -- 22
2019-06-04 15:00:00 28.5 25 Sudoeste 43 Sudoeste 0 -- -- 22
2019-06-04 14:00:00 28.3 22 Sudoeste 49 Sudoeste 0 -- -- 23
2019-06-04 13:00:00 27.5 19 Sudoeste 45 Sudoeste 0 -- -- 24
2019-06-04 12:00:00 26.6 19 Sudoeste 33 Sudoeste 0 -- -- 28
2019-06-04 11:00:00 24.8 15 Sudoeste 30 Sudoeste 0 -- -- 31
2019-06-04 10:00:00 22.3 11 Sur 22 Sur 0 -- -- 36
2019-06-04 09:00:00 19.5 13 Sur 23 Sur 0 -- -- 40
2019-06-04 08:00:00 16 6 Sur 13 Sudeste 0 -- -- 47
2019-06-04 07:00:00 13.7 6 Sur 14 Sur 0 -- -- 52
2019-06-04 06:00:00 14.3 7 Sur 17 Sur 0 -- -- 50
2019-06-04 05:00:00 15.2 7 Sur 16 Sudoeste 0 -- -- 46
2019-06-04 04:00:00 16.2 10 Sur 16 Sur 0 -- -- 41
2019-06-04 03:00:00 18.1 9 Sur 14 Sur 0 -- -- 34
2019-06-04 02:00:00 19 8 Sur 16 Sur 0 -- -- 32
2019-06-04 01:00:00 20.1 9 Sur 15 Sudoeste 0 -- -- 29
2019-06-04 00:00:00 22.2 8 Sudoeste 22 Oeste 0 -- -- 26
2019-06-03 23:00:00 24.3 14 Sudoeste 22 Sudoeste 0 -- -- 24
2019-06-03 22:00:00 26 14 Sudoeste 19 Sudoeste 0 -- -- 22
2019-06-03 21:00:00 29.3 16 Sudoeste 30 Sudoeste 0 -- -- 19
2019-06-03 20:00:00 31.6 14 Sudoeste 30 Sudoeste 0 -- -- 18
2019-06-03 19:00:00 32.5 15 Sudoeste 33 Sudoeste 0 -- -- 17
2019-06-03 18:00:00 32.8 14 Oeste 36 Sudoeste 0 -- -- 18
2019-06-03 17:00:00 33.2 15 Sudoeste 37 Sudoeste 0 -- -- 18
2019-06-03 16:00:00 32.7 7 Oeste 35 Sudoeste 0 -- -- 19
2019-06-03 15:00:00 31.8 15 Oeste 35 Sudoeste 0 -- -- 19
2019-06-03 14:00:00 31.2 10 Oeste 21 Oeste 0 -- -- 20
2019-06-03 13:00:00 29.5 8 Oeste 20 Sudoeste 0 -- -- 23
2019-06-03 12:00:00 28.2 10 Sudoeste 21 Sudoeste 0 -- -- 26
2019-06-03 11:00:00 25.8 10 Sudoeste 21 Sudoeste 0 -- -- 27
2019-06-03 10:00:00 22.9 11 Sudoeste 22 Sudoeste 0 -- -- 32
2019-06-03 09:00:00 19.9 12 Sur 22 Sur 0 -- -- 37
2019-06-03 08:00:00 16.7 12 Sur 18 Sur 0 -- -- 41
2019-06-03 07:00:00 15.6 11 Sur 16 Sur 0 -- -- 43
2019-06-03 06:00:00 16.5 7 Sur 17 Sur 0 -- -- 41
2019-06-03 05:00:00 18.6 7 Sudoeste 21 Sudoeste 0 -- -- 34
2019-06-03 04:00:00 19 12 Sur 22 Sur 0 -- -- 34
2019-06-03 03:00:00 20 14 Sur 27 Sur 0 -- -- 33
2019-06-03 02:00:00 18.9 11 Sur 21 Sur 0 -- -- 37
2019-06-03 01:00:00 19.3 6 Sur 16 Sur 0 -- -- 35
2019-06-03 00:00:00 20 7 Sur 16 Sur 0 -- -- 34
2019-06-02 23:00:00 22.2 9 Sudeste 21 Este 0 -- -- 31
2019-06-02 22:00:00 24.7 10 Sudeste 21 Este 0 -- -- 28
2019-06-02 21:00:00 29.2 6 Este 11 Este 0 -- -- 25
2019-06-02 20:00:00 32.5 5 Sur 14 Nordeste 0 -- -- 19
2019-06-02 19:00:00 31.5 10 Norte 31 Nordeste 0 -- -- 21
2019-06-02 18:00:00 31.9 8 Este 27 Este 0 -- -- 20
2019-06-02 17:00:00 31.9 8 Noroeste 21 Nordeste 0 -- -- 21
2019-06-02 16:00:00 31.7 10 Nordeste 22 Este 0 -- -- 21
2019-06-02 15:00:00 31 5 Oeste 19 Nordeste 0 -- -- 21
2019-06-02 14:00:00 30.2 5 Sudeste 18 Este 0 -- -- 22
2019-06-02 13:00:00 28.6 7 Norte 16 Noroeste 0 -- -- 25
2019-06-02 12:00:00 26.9 6 Noroeste 17 Noroeste 0 -- -- 26
2019-06-02 11:00:00 25.4 7 Noroeste 18 Noroeste 0 -- -- 28
2019-06-02 10:00:00 22.5 8 Oeste 19 Sudoeste 0 -- -- 36
2019-06-02 09:00:00 19.5 6 Sudoeste 14 Sudoeste 0 -- -- 39
2019-06-02 08:00:00 16.7 8 Sur 10 Sur 0 -- -- 40
2019-06-02 07:00:00 14 6 Sur 12 Sur 0 -- -- 45
2019-06-02 06:00:00 13.5 6 Sudeste 12 Sudeste 0 -- -- 46
2019-06-02 05:00:00 13.7 8 Sur 12 Sudeste 0 -- -- 44
2019-06-02 04:00:00 14.8 7 Sur 14 Sur 0 -- -- 41
2019-06-02 03:00:00 15.8 9 Sur 15 Sur 0 -- -- 38
2019-06-02 02:00:00 15.9 8 Sudeste 15 Sur 0 -- -- 37
2019-06-02 01:00:00 17.5 8 Sudeste 14 Sudeste 0 -- -- 34
2019-06-02 00:00:00 18.2 9 Sudeste 14 Sudeste 0 -- -- 32
2019-06-01 23:00:00 19.8 9 Sudeste 19 Este 0 -- -- 30
2019-06-01 22:00:00 21.6 11 Sudeste 18 Este 0 -- -- 28
2019-06-01 21:00:00 25.6 13 Sudeste 27 Este 0 -- -- 24
2019-06-01 20:00:00 27.9 13 Este 28 Este 0 -- -- 20
2019-06-01 19:00:00 29.4 11 Este 28 Este 0 -- -- 19
2019-06-01 18:00:00 29.3 14 Este 32 Este 0 -- -- 20
2019-06-01 17:00:00 29.8 17 Este 37 Este 0 -- -- 19
2019-06-01 16:00:00 29.6 18 Este 45 Este 0 -- -- 20
2019-06-01 15:00:00 29 22 Este 33 Este 0 -- -- 22
2019-06-01 14:00:00 28.8 15 Este 39 Este 0 -- -- 23
2019-06-01 13:00:00 27.7 18 Este 36 Este 0 -- -- 28
2019-06-01 12:00:00 27.1 17 Este 33 Este 0 -- -- 29
2019-06-01 11:00:00 26.2 9 Sudeste 31 Este 0 -- -- 32
2019-06-01 10:00:00 23.5 9 Este 16 Este 0 -- -- 36
2019-06-01 09:00:00 20.2 13 Este 21 Este 0 -- -- 42
2019-06-01 08:00:00 17.9 6 Sudeste 11 Sudeste 0 -- -- 44
2019-06-01 07:00:00 13.5 7 Sudeste 12 Sudeste 0 -- -- 49
2019-06-01 06:00:00 13.4 8 Sudeste 13 Sudeste 0 -- -- 49
2019-06-01 05:00:00 14.1 7 Sur 12 Sudeste 0 -- -- 46
2019-06-01 04:00:00 14.6 8 Sudeste 14 Sur 0 -- -- 42
2019-06-01 03:00:00 14.8 8 Sudeste 14 Sudeste 0 -- -- 42
2019-06-01 02:00:00 14.8 9 Sudeste 17 Sur 0 -- -- 40
2019-06-01 01:00:00 15.8 8 Sudeste 17 Sudeste 0 -- -- 38
2019-06-01 00:00:00 17 12 Sudeste 21 Sudeste 0 -- -- 36
2019-05-31 23:00:00 17.3 12 Sudeste 24 Este 0 -- -- 38
2019-05-31 22:00:00 20 16 Este 28 Este 0 -- -- 34
2019-05-31 21:00:00 24 19 Este 28 Este 0 -- -- 27
2019-05-31 20:00:00 27.1 13 Este 25 Sudeste 0 -- -- 23
2019-05-31 19:00:00 29.3 10 Sudeste 24 Este 0 -- -- 20
2019-05-31 18:00:00 29.5 12 Sudeste 31 Este 0 -- -- 19
2019-05-31 17:00:00 28.4 18 Este 34 Sudeste 0 -- -- 23
2019-05-31 16:00:00 29.8 13 Sudeste 29 Este 0 -- -- 21
2019-05-31 15:00:00 28.8 12 Sudeste 33 Este 0 -- -- 22
2019-05-31 14:00:00 27.8 9 Este 28 Este 0 -- -- 22
2019-05-31 13:00:00 27.1 14 Este 28 Este 0 -- -- 23
2019-05-31 12:00:00 26.7 11 Sudeste 24 Este 0 -- -- 25
2019-05-31 11:00:00 25 10 Sudeste 20 Este 0 -- -- 31
2019-05-31 10:00:00 22.6 10 Este 16 Este 0 -- -- 36
2019-05-31 09:00:00 18.9 11 Este 18 Este 0 -- -- 44
2019-05-31 08:00:00 16 7 Este 14 Este 0 -- -- 48
2019-05-31 07:00:00 13 8 Sudeste 12 Sudeste 0 -- -- 52
2019-05-31 06:00:00 13.6 8 Sudeste 14 Sudeste 0 -- -- 50
2019-05-31 05:00:00 13.8 9 Sudeste 15 Este 0 -- -- 49
2019-05-31 04:00:00 14.3 9 Sudeste 13 Sudeste 0 -- -- 47
2019-05-31 03:00:00 14.1 8 Sudeste 14 Sur 0 -- -- 48
2019-05-31 02:00:00 14.6 9 Sudeste 13 Sur 0 -- -- 46
2019-05-31 01:00:00 15.5 8 Sudeste 17 Sudeste 0 -- -- 44
2019-05-31 00:00:00 16.7 10 Sudeste 18 Sudeste 0 -- -- 41
2019-05-30 23:00:00 17.4 12 Sudeste 20 Sudeste 0 -- -- 41
2019-05-30 22:00:00 19.5 11 Sudeste 25 Este 0 -- -- 35
2019-05-30 21:00:00 23.2 19 Este 32 Este 0 -- -- 30
2019-05-30 20:00:00 25.9 18 Este 31 Este 0 -- -- 25
2019-05-30 19:00:00 26.9 17 Este 30 Este 0 -- -- 23
2019-05-30 18:00:00 27.5 17 Este 32 Este 0 -- -- 23
2019-05-30 17:00:00 27.8 15 Este 31 Este 0 -- -- 22
2019-05-30 16:00:00 28.6 15 Este 31 Este 0 -- -- 23
2019-05-30 15:00:00 27.5 12 Este 29 Sudeste 0 -- -- 23
2019-05-30 14:00:00 26.8 5 Sur 26 Este 0 -- -- 25
2019-05-30 13:00:00 25.4 8 Sudeste 19 Este 0 -- -- 28
2019-05-30 12:00:00 23.5 9 Nordeste 17 Nordeste 0 -- -- 31
2019-05-30 11:00:00 21.8 3 Norte 12 Sudoeste 0 -- -- 36
2019-05-30 10:00:00 20.2 4 Este 20 Este 0 -- -- 40
2019-05-30 09:00:00 16.7 15 Este 26 Este 0 -- -- 51
2019-05-30 08:00:00 13.7 18 Este 32 Este 0 -- -- 56
2019-05-30 07:00:00 11.9 23 Este 30 Este 0 -- -- 59
2019-05-30 06:00:00 12.3 18 Este 27 Este 0 -- -- 58
2019-05-30 05:00:00 12.2 16 Sudeste 32 Este 0 -- -- 58
2019-05-30 04:00:00 13.2 25 Este 33 Este 0 -- -- 53
2019-05-30 03:00:00 13.8 23 Este 32 Este 0 -- -- 49
2019-05-30 02:00:00 15 23 Este 31 Este 0 -- -- 46
2019-05-30 01:00:00 15.7 17 Este 23 Nordeste 0 -- -- 46
2019-05-30 00:00:00 16.4 14 Nordeste 21 Nordeste 0 -- -- 44
2019-05-29 23:00:00 17.3 14 Nordeste 19 Nordeste 0 -- -- 42
2019-05-29 22:00:00 19.3 12 Nordeste 22 Nordeste 0 -- -- 37
2019-05-29 21:00:00 22.3 14 Nordeste 28 Nordeste 0 -- -- 31
2019-05-29 20:00:00 23.8 19 Nordeste 31 Nordeste 0 -- -- 28
2019-05-29 19:00:00 24.4 20 Nordeste 31 Nordeste 0 -- -- 26
2019-05-29 18:00:00 25.1 16 Nordeste 30 Nordeste 0 -- -- 24
2019-05-29 17:00:00 24.6 16 Nordeste 31 Nordeste 0 -- -- 24
2019-05-29 16:00:00 23.6 15 Nordeste 45 Nordeste 0 -- -- 24
2019-05-29 15:00:00 22.8 14 Nordeste 31 Nordeste 0 -- -- 27
2019-05-29 14:00:00 21.9 16 Norte 31 Noroeste 0 -- -- 29
2019-05-29 13:00:00 20.7 17 Nordeste 30 Norte 0 -- -- 31
2019-05-29 12:00:00 19.5 17 Nordeste 33 Nordeste 0 -- -- 34
2019-05-29 11:00:00 17.9 18 Nordeste 35 Nordeste 0 -- -- 36
2019-05-29 10:00:00 15.5 21 Nordeste 29 Nordeste 0 -- -- 45
2019-05-29 09:00:00 13.4 16 Nordeste 26 Nordeste 0 -- -- 59
2019-05-29 08:00:00 11.2 4 Este 17 Este 0 -- -- 68
2019-05-29 07:00:00 9.5 13 Este 20 Nordeste 0 -- -- 73
2019-05-29 06:00:00 9.2 8 Nordeste 16 Este 0 -- -- 72
2019-05-29 05:00:00 11.4 16 Este 24 Este 0 -- -- 68
2019-05-29 04:00:00 12.5 19 Este 27 Este 0 -- -- 61
2019-05-29 03:00:00 13.4 18 Este 31 Nordeste 0 -- -- 56
2019-05-29 02:00:00 14.4 22 Nordeste 30 Nordeste 0 -- -- 48
2019-05-29 01:00:00 15 19 Nordeste 27 Nordeste 0 -- -- 43
2019-05-29 00:00:00 16.4 19 Este 22 Este 0 -- -- 37
2019-05-28 23:00:00 17.5 14 Este 23 Este 0 -- -- 34
2019-05-28 22:00:00 19.2 11 Nordeste 23 Nordeste 0 -- -- 31
2019-05-28 21:00:00 23.1 17 Nordeste 31 Nordeste 0 -- -- 25
2019-05-28 20:00:00 25 18 Norte 32 Nordeste 0 -- -- 25
2019-05-28 19:00:00 25.9 17 Nordeste 30 Norte 0 -- -- 25
2019-05-28 18:00:00 26.7 16 Noroeste 32 Norte 0 -- -- 28
2019-05-28 17:00:00 26.5 19 Norte 33 Nordeste 0 -- -- 31
2019-05-28 16:00:00 26.9 14 Norte 31 Norte 0 -- -- 32
2019-05-28 15:00:00 26.2 12 Norte 29 Norte 0 -- -- 33
2019-05-28 14:00:00 25.7 14 Norte 26 Norte 0 -- -- 34
2019-05-28 13:00:00 25 14 Nordeste 24 Nordeste 0 -- -- 35
2019-05-28 12:00:00 24.5 10 Norte 23 Norte 0 -- -- 37
2019-05-28 11:00:00 23.1 13 Nordeste 27 Este 0 -- -- 39
2019-05-28 10:00:00 21.9 17 Nordeste 23 Este 0 -- -- 41
2019-05-28 09:00:00 18.5 10 Este 21 Este 0 -- -- 60
2019-05-28 08:00:00 13.9 17 Este 31 Este 0 -- -- 71
2019-05-28 07:00:00 12.8 27 Este 39 Este 0 -- -- 72
2019-05-28 06:00:00 13.2 30 Este 42 Este 0 -- -- 70
2019-05-28 05:00:00 13.4 30 Este 39 Este 0 -- -- 70
2019-05-28 04:00:00 14.3 29 Este 39 Este 0 -- -- 71
2019-05-28 03:00:00 15.9 27 Este 36 Este 0 -- -- 64
2019-05-28 02:00:00 16.5 13 Nordeste 19 Nordeste 0 -- -- 49
2019-05-28 01:00:00 18.1 13 Nordeste 17 Nordeste 0 -- -- 45
2019-05-28 00:00:00 20.8 3 Noroeste 8 Nordeste 0 -- -- 40